createdAt,value
2022-09-17T00:01:20.557Z,100.00
2022-09-17T00:03:53.897Z,100.00
2022-09-17T00:06:21.336Z,100.00
2022-09-17T00:08:47.959Z,100.00
2022-09-17T00:11:23.391Z,100.00
2022-09-17T00:13:51.500Z,100.00
2022-09-17T00:16:30.197Z,100.00
2022-09-17T00:18:57.651Z,100.00
2022-09-17T00:21:24.357Z,100.00
2022-09-17T00:23:56.382Z,100.00
2022-09-17T00:26:22.997Z,100.00
2022-09-17T00:28:54.422Z,100.00
2022-09-17T00:31:21.780Z,100.00
2022-09-17T00:33:48.906Z,100.00
2022-09-17T00:36:15.665Z,100.00
2022-09-17T00:38:42.144Z,100.00
2022-09-17T00:41:08.827Z,100.00
2022-09-17T00:43:41.852Z,100.00
2022-09-17T00:46:37.106Z,100.00
2022-09-17T00:49:12.792Z,100.00
2022-09-17T00:51:45.833Z,100.00
2022-09-17T00:54:12.843Z,100.00
2022-09-17T00:56:41.509Z,100.00
2022-09-17T00:59:08.643Z,100.00
2022-09-17T01:01:36.083Z,100.00
2022-09-17T01:04:03.386Z,100.00
2022-09-17T01:06:38.956Z,100.00
2022-09-17T01:09:25.230Z,100.00
2022-09-17T01:12:06.560Z,100.00
2022-09-17T01:14:40.022Z,100.00
2022-09-17T01:17:21.618Z,100.00
2022-09-17T01:19:57.149Z,100.00
2022-09-17T01:23:01.693Z,100.00
2022-09-17T01:25:53.145Z,100.00
2022-09-17T01:28:54.168Z,100.00
2022-09-17T01:31:36.104Z,100.00
2022-09-17T01:34:34.795Z,100.00
2022-09-17T01:37:15.881Z,100.00
2022-09-17T01:39:58.042Z,100.00
2022-09-17T01:42:43.798Z,100.00
2022-09-17T01:45:18.491Z,100.00
2022-09-17T01:47:51.888Z,100.00
2022-09-17T01:50:25.257Z,100.00
2022-09-17T01:52:56.608Z,100.00
2022-09-17T01:55:29.216Z,100.00
2022-09-17T01:58:07.225Z,100.00
2022-09-17T02:00:34.982Z,100.00
2022-09-17T02:03:42.351Z,100.00
2022-09-17T02:06:20.135Z,100.00
2022-09-17T02:08:56.851Z,100.00
2022-09-17T02:11:23.913Z,100.00
2022-09-17T02:13:58.650Z,100.00
2022-09-17T02:16:28.175Z,100.00
2022-09-17T02:19:31.557Z,100.00
2022-09-17T02:22:03.222Z,100.00
2022-09-17T02:24:42.717Z,100.00
2022-09-17T02:27:17.691Z,100.00
2022-09-17T02:29:44.922Z,100.00
2022-09-17T02:32:13.361Z,100.00
2022-09-17T02:34:40.613Z,100.00
2022-09-17T02:37:08.142Z,100.00
2022-09-17T02:39:35.052Z,100.00
2022-09-17T02:42:23.670Z,100.00
2022-09-17T02:45:02.302Z,100.00
2022-09-17T02:47:47.449Z,100.00
2022-09-17T02:50:26.100Z,100.00
2022-09-17T02:53:04.710Z,100.00
2022-09-17T02:55:46.410Z,100.00
2022-09-17T02:58:39.338Z,100.00
2022-09-17T03:01:14.700Z,100.00
2022-09-17T03:03:44.284Z,100.00
2022-09-17T03:06:10.839Z,100.00
2022-09-17T03:08:40.885Z,100.00
2022-09-17T03:11:09.213Z,100.00
2022-09-17T03:13:36.360Z,100.00
2022-09-17T03:16:07.105Z,100.00
2022-09-17T03:18:33.959Z,100.00
2022-09-17T03:21:00.553Z,100.00
2022-09-17T03:23:28.020Z,100.00
2022-09-17T03:25:55.324Z,100.00
2022-09-17T03:28:22.138Z,100.00
2022-09-17T03:30:48.706Z,100.00
2022-09-17T03:33:15.343Z,100.00
2022-09-17T03:35:46.052Z,100.00
2022-09-17T03:38:13.542Z,100.00
2022-09-17T03:40:40.626Z,100.00
2022-09-17T03:43:07.863Z,100.00
2022-09-17T03:45:34.310Z,100.00
2022-09-17T03:48:01.022Z,100.00
2022-09-17T03:50:27.457Z,100.00
2022-09-17T03:52:53.981Z,100.00
2022-09-17T03:55:20.492Z,100.00
2022-09-17T03:57:46.993Z,100.00
2022-09-17T04:00:17.247Z,100.00
2022-09-17T04:02:43.856Z,100.00
2022-09-17T04:05:10.797Z,100.00
2022-09-17T04:07:37.348Z,100.00
2022-09-17T04:10:05.302Z,100.00
2022-09-17T04:12:32.029Z,100.00
2022-09-17T04:14:58.562Z,100.00
2022-09-17T04:17:25.026Z,100.00
2022-09-17T04:19:51.504Z,100.00
2022-09-17T04:22:17.971Z,100.00
2022-09-17T04:24:44.415Z,100.00
2022-09-17T04:27:10.881Z,100.00
2022-09-17T04:29:37.311Z,100.00
2022-09-17T04:32:03.888Z,100.00
2022-09-17T04:34:31.896Z,100.00
2022-09-17T04:36:58.452Z,100.00
2022-09-17T04:39:24.971Z,100.00
2022-09-17T04:41:51.410Z,100.00
2022-09-17T04:44:18.030Z,100.00
2022-09-17T04:46:44.630Z,100.00
2022-09-17T04:49:11.285Z,100.00
2022-09-17T04:51:37.858Z,100.00
2022-09-17T04:54:04.583Z,100.00
2022-09-17T04:56:31.077Z,100.00
2022-09-17T04:58:57.718Z,100.00
2022-09-17T05:01:24.199Z,100.00
2022-09-17T05:03:50.761Z,100.00
2022-09-17T05:06:17.220Z,100.00
2022-09-17T05:08:43.742Z,100.00
2022-09-17T05:11:10.162Z,100.00
2022-09-17T05:13:36.643Z,100.00
2022-09-17T05:16:03.188Z,100.00
2022-09-17T05:18:29.716Z,100.00
2022-09-17T05:20:56.203Z,100.00
2022-09-17T05:23:22.631Z,100.00
2022-09-17T05:25:49.170Z,100.00
2022-09-17T05:28:15.652Z,100.00
2022-09-17T05:30:42.820Z,100.00
2022-09-17T05:33:10.012Z,100.00
2022-09-17T05:35:36.662Z,100.00
2022-09-17T05:38:05.689Z,100.00
2022-09-17T05:40:34.955Z,100.00
2022-09-17T05:43:03.474Z,100.00
2022-09-17T05:45:30.695Z,100.00
2022-09-17T05:47:58.306Z,100.00
2022-09-17T05:50:26.258Z,100.00
2022-09-17T05:52:53.407Z,100.00
2022-09-17T05:55:22.296Z,100.00
2022-09-17T05:57:51.162Z,100.00
2022-09-17T06:00:18.931Z,100.00
2022-09-17T06:02:45.528Z,100.00
2022-09-17T06:05:12.125Z,100.00
2022-09-17T06:07:39.173Z,100.00
2022-09-17T06:10:08.223Z,100.00
2022-09-17T06:12:35.642Z,100.00
2022-09-17T06:15:06.683Z,100.00
2022-09-17T06:17:35.100Z,100.00
2022-09-17T06:20:03.153Z,100.00
2022-09-17T06:22:29.623Z,100.00
2022-09-17T06:24:56.102Z,100.00
2022-09-17T06:27:22.658Z,100.00
2022-09-17T06:29:49.122Z,100.00
2022-09-17T06:32:17.043Z,100.00
2022-09-17T06:34:43.971Z,100.00
2022-09-17T06:37:10.478Z,100.00
2022-09-17T06:39:37.153Z,100.00
2022-09-17T06:42:03.738Z,100.00
2022-09-17T06:44:30.175Z,100.00
2022-09-17T06:46:56.762Z,100.00
2022-09-17T06:49:24.246Z,100.00
2022-09-17T06:51:50.750Z,100.00
2022-09-17T06:54:17.187Z,100.00
2022-09-17T06:56:46.742Z,100.00
2022-09-17T06:59:13.551Z,100.00
2022-09-17T07:01:40.025Z,100.00
2022-09-17T07:04:06.533Z,100.00
2022-09-17T07:06:32.968Z,100.00
2022-09-17T07:08:59.593Z,100.00
2022-09-17T07:11:26.081Z,100.00
2022-09-17T07:13:52.540Z,100.00
2022-09-17T07:16:19.714Z,100.00
2022-09-17T07:18:46.430Z,100.00
2022-09-17T07:21:12.874Z,100.00
2022-09-17T07:23:39.371Z,100.00
2022-09-17T07:26:12.247Z,100.00
2022-09-17T07:28:39.981Z,100.00
2022-09-17T07:31:09.347Z,100.00
2022-09-17T07:33:38.695Z,100.00
2022-09-17T07:36:11.469Z,99.41
2022-09-17T07:38:39.510Z,100.00
2022-09-17T07:41:09.828Z,98.96
2022-09-17T07:43:36.392Z,97.77
2022-09-17T07:46:04.864Z,97.13
2022-09-17T07:48:31.885Z,96.97
2022-09-17T07:50:58.554Z,95.71
2022-09-17T07:53:25.788Z,97.31
2022-09-17T07:55:54.420Z,97.48
2022-09-17T07:58:28.026Z,95.42
2022-09-17T08:01:00.428Z,94.46
2022-09-17T08:03:26.966Z,97.06
2022-09-17T08:05:53.403Z,94.51
2022-09-17T08:08:21.372Z,93.56
2022-09-17T08:10:47.958Z,91.70
2022-09-17T08:13:14.359Z,91.06
2022-09-17T08:15:40.832Z,90.65
2022-09-17T08:18:07.272Z,88.39
2022-09-17T08:20:34.065Z,90.15
2022-09-17T08:23:01.403Z,87.23
2022-09-17T08:25:28.036Z,86.76
2022-09-17T08:27:58.237Z,85.84
2022-09-17T08:30:24.823Z,86.34
2022-09-17T08:32:51.361Z,81.92
2022-09-17T08:35:17.875Z,83.94
2022-09-17T08:37:44.334Z,82.73
2022-09-17T08:40:18.176Z,82.49
2022-09-17T08:42:59.178Z,82.71
2022-09-17T08:45:26.585Z,80.40
2022-09-17T08:48:01.710Z,82.11
2022-09-17T08:50:39.330Z,81.51
2022-09-17T08:53:12.082Z,78.26
2022-09-17T08:55:41.283Z,77.00
2022-09-17T08:58:16.773Z,81.41
2022-09-17T09:00:53.980Z,80.51
2022-09-17T09:03:32.021Z,81.02
2022-09-17T09:06:00.549Z,77.74
2022-09-17T09:08:45.689Z,77.87
2022-09-17T09:11:27.414Z,77.17
2022-09-17T09:14:00.563Z,75.98
2022-09-17T09:16:31.551Z,77.13
2022-09-17T09:19:14.121Z,74.53
2022-09-17T09:21:55.980Z,75.50
2022-09-17T09:24:32.150Z,75.53
2022-09-17T09:27:28.218Z,75.78
2022-09-17T09:30:11.128Z,73.37
2022-09-17T09:32:46.402Z,73.17
2022-09-17T09:35:34.336Z,71.90
2022-09-17T09:38:18.278Z,71.58
2022-09-17T09:40:53.738Z,67.43
2022-09-17T09:44:02.781Z,70.33
2022-09-17T09:46:54.543Z,70.89
2022-09-17T09:49:46.222Z,71.16
2022-09-17T09:52:23.098Z,69.91
2022-09-17T09:54:49.491Z,68.50
2022-09-17T09:57:20.068Z,67.37
2022-09-17T09:59:46.438Z,68.05
2022-09-17T10:02:13.214Z,66.35
2022-09-17T10:04:39.702Z,66.50
2022-09-17T10:07:11.583Z,65.50
2022-09-17T10:09:44.757Z,63.53
2022-09-17T10:12:11.143Z,65.76
2022-09-17T10:14:39.279Z,66.50
2022-09-17T10:17:17.976Z,64.99
2022-09-17T10:19:45.734Z,62.85
2022-09-17T10:22:34.083Z,64.03
2022-09-17T10:25:02.077Z,63.11
2022-09-17T10:27:30.247Z,64.47
2022-09-17T10:30:08.798Z,62.19
2022-09-17T10:32:35.374Z,63.60
2022-09-17T10:35:05.721Z,63.15
2022-09-17T10:37:44.451Z,63.10
2022-09-17T10:40:32.274Z,61.36
2022-09-17T10:43:19.293Z,58.29
2022-09-17T10:45:57.042Z,58.57
2022-09-17T10:48:24.158Z,58.68
2022-09-17T10:50:53.386Z,62.24
2022-09-17T10:53:23.335Z,66.45
2022-09-17T10:56:01.871Z,70.93
2022-09-17T10:58:55.753Z,70.50
2022-09-17T11:01:35.569Z,67.22
2022-09-17T11:04:26.948Z,67.20
2022-09-17T11:07:05.467Z,65.94
2022-09-17T11:10:12.964Z,63.22
2022-09-17T11:13:01.207Z,61.79
2022-09-17T11:15:52.761Z,60.17
2022-09-17T11:18:55.746Z,59.63
2022-09-17T11:21:37.316Z,60.57
2022-09-17T11:24:28.314Z,61.25
2022-09-17T11:27:56.320Z,59.49
2022-09-17T11:30:24.142Z,57.19
2022-09-17T11:33:05.148Z,57.06
2022-09-17T11:35:37.558Z,55.96
2022-09-17T11:38:13.018Z,55.37
2022-09-17T11:41:12.749Z,56.61
2022-09-17T11:43:49.244Z,53.17
2022-09-17T11:46:24.829Z,53.31
2022-09-17T11:49:22.131Z,55.91
2022-09-17T11:52:04.286Z,55.57
2022-09-17T11:54:50.198Z,56.44
2022-09-17T11:57:20.123Z,55.75
2022-09-17T12:00:06.701Z,56.23
2022-09-17T12:02:51.529Z,55.17
2022-09-17T12:05:24.192Z,54.06
2022-09-17T12:08:04.734Z,55.49
2022-09-17T12:11:00.182Z,54.58
2022-09-17T12:13:45.133Z,55.24
2022-09-17T12:16:20.896Z,54.17
2022-09-17T12:19:12.774Z,55.90
2022-09-17T12:21:46.725Z,57.96
2022-09-17T12:24:30.529Z,58.18
2022-09-17T12:27:06.638Z,57.93
2022-09-17T12:29:42.083Z,57.79
2022-09-17T12:32:36.733Z,59.41
2022-09-17T12:35:12.511Z,59.60
2022-09-17T12:38:02.725Z,59.84
2022-09-17T12:40:35.777Z,58.21
2022-09-17T12:43:36.614Z,57.69
2022-09-17T12:46:34.825Z,58.64
2022-09-17T12:49:08.512Z,60.46
2022-09-17T12:52:02.083Z,58.08
2022-09-17T12:54:56.267Z,60.19
2022-09-17T12:57:52.013Z,60.52
2022-09-17T13:00:18.779Z,58.92
2022-09-17T13:02:58.415Z,59.94
2022-09-17T13:05:49.712Z,59.85
2022-09-17T13:08:30.884Z,57.56
2022-09-17T13:11:19.452Z,56.95
2022-09-17T13:14:17.238Z,60.16
2022-09-17T13:17:05.179Z,55.16
2022-09-17T13:19:43.195Z,59.69
2022-09-17T13:22:26.214Z,58.71
2022-09-17T13:25:08.482Z,58.38
2022-09-17T13:27:38.651Z,56.29
2022-09-17T13:30:10.953Z,57.58
2022-09-17T13:32:38.835Z,61.38
2022-09-17T13:35:11.361Z,81.07
2022-09-17T13:37:39.569Z,85.98
2022-09-17T13:40:19.363Z,87.79
2022-09-17T13:42:50.430Z,89.33
2022-09-17T13:45:19.245Z,90.42
2022-09-17T13:48:09.171Z,92.50
2022-09-17T13:50:44.111Z,95.50
2022-09-17T13:53:13.647Z,93.83
2022-09-17T13:55:43.223Z,93.85
2022-09-17T13:58:09.530Z,95.91
2022-09-17T14:00:48.714Z,97.46
2022-09-17T14:03:46.499Z,96.62
2022-09-17T14:06:17.975Z,95.38
2022-09-17T14:08:44.522Z,98.82
2022-09-17T14:11:27.578Z,96.09
2022-09-17T14:14:04.250Z,98.57
2022-09-17T14:16:42.853Z,97.45
2022-09-17T14:19:15.458Z,94.65
2022-09-17T14:22:22.070Z,89.83
2022-09-17T14:24:52.449Z,93.51
2022-09-17T14:27:56.706Z,92.27
2022-09-17T14:30:31.031Z,90.24
2022-09-17T14:33:00.623Z,91.61
2022-09-17T14:35:42.015Z,91.62
2022-09-17T14:38:23.754Z,87.90
2022-09-17T14:41:10.459Z,90.29
2022-09-17T14:43:45.479Z,90.11
2022-09-17T14:46:21.435Z,87.97
2022-09-17T14:48:48.346Z,86.93
2022-09-17T14:51:17.997Z,87.69
2022-09-17T14:54:05.637Z,87.46
2022-09-17T14:56:40.737Z,85.86
2022-09-17T14:59:21.498Z,85.79
2022-09-17T15:01:48.688Z,83.65
2022-09-17T15:04:25.487Z,84.39
2022-09-17T15:06:52.450Z,83.44
2022-09-17T15:09:23.996Z,82.89
2022-09-17T15:11:54.694Z,82.50
2022-09-17T15:14:27.568Z,81.92
2022-09-17T15:16:56.365Z,84.31
2022-09-17T15:19:31.199Z,79.73
2022-09-17T15:21:58.299Z,82.28
2022-09-17T15:24:36.114Z,80.73
2022-09-17T15:27:22.228Z,83.23
2022-09-17T15:29:53.588Z,84.40
2022-09-17T15:32:20.435Z,86.62
2022-09-17T15:35:15.683Z,86.92
2022-09-17T15:38:21.671Z,85.04
2022-09-17T15:40:44.605Z,89.55
2022-09-17T15:43:25.644Z,93.09
2022-09-17T15:45:52.506Z,97.67
2022-09-17T15:48:27.471Z,97.55
2022-09-17T15:50:56.288Z,96.70
2022-09-17T15:53:28.949Z,96.42
2022-09-17T15:56:09.576Z,96.70
2022-09-17T15:58:36.011Z,97.20
2022-09-17T16:01:11.811Z,96.68
2022-09-17T16:03:38.192Z,96.06
2022-09-17T16:06:27.731Z,96.02
2022-09-17T16:09:01.068Z,98.69
2022-09-17T16:11:30.472Z,95.49
2022-09-17T16:14:00.440Z,96.15
2022-09-17T16:16:31.522Z,96.36
2022-09-17T16:18:57.997Z,97.87
2022-09-17T16:21:25.174Z,96.85
2022-09-17T16:23:53.940Z,97.64
2022-09-17T16:26:26.932Z,97.58
2022-09-17T16:28:56.106Z,95.81
2022-09-17T16:31:22.669Z,96.95
2022-09-17T16:33:50.333Z,98.33
2022-09-17T16:36:17.613Z,97.84
2022-09-17T16:38:44.058Z,96.34
2022-09-17T16:41:10.997Z,97.26
2022-09-17T16:43:38.337Z,98.93
2022-09-17T16:46:10.787Z,97.41
2022-09-17T16:48:38.072Z,97.66
2022-09-17T16:51:08.661Z,97.51
2022-09-17T16:53:35.066Z,98.04
2022-09-17T16:56:01.748Z,99.70
2022-09-17T16:58:28.185Z,97.81
2022-09-17T17:00:54.728Z,97.79
2022-09-17T17:03:21.221Z,96.83
2022-09-17T17:05:48.847Z,94.67
2022-09-17T17:08:15.363Z,97.64
2022-09-17T17:10:41.929Z,94.98
2022-09-17T17:13:08.374Z,94.03
2022-09-17T17:15:34.835Z,92.28
2022-09-17T17:18:01.342Z,94.66
2022-09-17T17:20:27.888Z,91.83
2022-09-17T17:22:55.069Z,93.71
2022-09-17T17:25:23.612Z,90.44
2022-09-17T17:27:50.307Z,90.93
2022-09-17T17:30:17.350Z,90.01
2022-09-17T17:32:48.701Z,90.98
2022-09-17T17:35:15.319Z,90.59
2022-09-17T17:37:41.777Z,89.51
2022-09-17T17:40:11.701Z,90.97
2022-09-17T17:42:39.516Z,90.78
2022-09-17T17:45:07.803Z,90.72
2022-09-17T17:47:34.916Z,93.62
2022-09-17T17:50:01.546Z,92.62
2022-09-17T17:52:28.269Z,90.43
2022-09-17T17:54:54.805Z,90.34
2022-09-17T17:57:21.318Z,91.29
2022-09-17T17:59:47.767Z,91.54
2022-09-17T18:02:14.289Z,91.14
2022-09-17T18:04:40.853Z,90.75
2022-09-17T18:07:07.723Z,88.28
2022-09-17T18:09:34.208Z,89.14
2022-09-17T18:12:00.676Z,89.04
2022-09-17T18:14:27.464Z,89.59
2022-09-17T18:16:54.335Z,88.28
2022-09-17T18:19:20.745Z,89.36
2022-09-17T18:21:47.216Z,87.73
2022-09-17T18:24:13.805Z,88.33
2022-09-17T18:26:40.329Z,88.55
2022-09-17T18:29:08.110Z,87.98
2022-09-17T18:31:36.005Z,87.18
2022-09-17T18:34:15.352Z,85.86
2022-09-17T18:36:44.698Z,87.42
2022-09-17T18:42:01.972Z,86.38
2022-09-17T18:44:28.513Z,88.08
2022-09-17T18:46:54.996Z,86.63
2022-09-17T18:49:21.871Z,86.20
2022-09-17T18:51:48.377Z,86.73
2022-09-17T18:54:14.959Z,85.98
2022-09-17T18:56:42.032Z,85.70
2022-09-17T18:59:09.764Z,85.75
2022-09-17T19:01:36.374Z,86.66
2022-09-17T19:04:03.410Z,88.25
2022-09-17T19:06:32.410Z,88.07
2022-09-17T19:09:03.703Z,87.68
2022-09-17T19:11:30.306Z,87.68
2022-09-17T19:13:56.816Z,87.91
2022-09-17T19:16:23.480Z,88.77
2022-09-17T19:18:50.104Z,89.10
2022-09-17T19:21:18.989Z,89.35
2022-09-17T19:23:47.674Z,89.93
2022-09-17T19:26:17.804Z,88.25
2022-09-17T19:28:45.100Z,89.76
2022-09-17T19:31:14.566Z,90.85
2022-09-17T19:33:41.520Z,90.53
2022-09-17T19:36:11.638Z,91.53
2022-09-17T19:38:38.553Z,90.41
2022-09-17T19:41:07.796Z,90.35
2022-09-17T19:43:34.321Z,90.84
2022-09-17T19:46:27.573Z,91.81
2022-09-17T19:48:55.901Z,92.27
2022-09-17T19:51:24.084Z,93.00
2022-09-17T19:53:51.387Z,92.71
2022-09-17T19:56:23.541Z,92.97
2022-09-17T19:58:50.338Z,92.38
2022-09-17T20:01:18.175Z,92.95
2022-09-17T20:03:45.833Z,92.44
2022-09-17T20:06:17.682Z,91.80
2022-09-17T20:08:48.356Z,92.57
2022-09-17T20:11:16.306Z,92.32
2022-09-17T20:13:43.003Z,93.02
2022-09-17T20:16:18.827Z,92.65
2022-09-17T20:18:45.530Z,92.98
2022-09-17T20:21:24.652Z,93.09
2022-09-17T20:23:51.468Z,92.65
2022-09-17T20:26:18.329Z,93.08
2022-09-17T20:28:45.686Z,92.90
2022-09-17T20:31:26.266Z,93.05
2022-09-17T20:33:54.467Z,92.69
2022-09-17T20:36:23.655Z,93.14
2022-09-17T20:39:16.516Z,92.73
2022-09-17T20:41:39.154Z,93.43
2022-09-17T20:44:07.109Z,93.17
2022-09-17T20:46:34.039Z,92.49
2022-09-17T20:49:00.538Z,93.13
2022-09-17T20:51:29.558Z,95.26
2022-09-17T20:54:01.494Z,95.11
2022-09-17T20:56:31.363Z,95.35
2022-09-17T20:59:03.940Z,95.23
2022-09-17T21:01:34.497Z,94.96
2022-09-17T21:04:02.449Z,96.20
2022-09-17T21:06:31.071Z,95.02
2022-09-17T21:08:59.965Z,94.17
2022-09-17T21:11:26.827Z,94.58
2022-09-17T21:13:53.608Z,93.26
2022-09-17T21:16:20.911Z,92.15
2022-09-17T21:18:48.123Z,93.78
2022-09-17T21:21:16.792Z,93.60
2022-09-17T21:23:43.898Z,93.67
2022-09-17T21:26:28.961Z,94.55
2022-09-17T21:28:56.520Z,93.68
2022-09-17T21:31:28.390Z,93.47
2022-09-17T21:34:00.205Z,93.33
2022-09-17T21:36:29.370Z,93.66
2022-09-17T21:38:58.652Z,93.44
2022-09-17T21:41:25.999Z,93.71
2022-09-17T21:43:53.002Z,92.93
2022-09-17T21:46:24.674Z,92.77
2022-09-17T21:48:53.657Z,93.30
2022-09-17T21:51:23.050Z,92.57
2022-09-17T21:53:54.747Z,93.47
2022-09-17T21:56:21.774Z,93.41
2022-09-17T21:58:54.330Z,94.20
2022-09-17T22:01:24.006Z,93.83
2022-09-17T22:03:50.999Z,93.80
2022-09-17T22:06:27.032Z,94.33
2022-09-17T22:08:54.621Z,94.20
2022-09-17T22:11:29.600Z,93.68
2022-09-17T22:14:04.727Z,94.00
2022-09-17T22:16:33.079Z,93.22
2022-09-17T22:18:59.964Z,93.66
2022-09-17T22:21:28.568Z,93.73
2022-09-17T22:23:57.361Z,93.64
2022-09-17T22:26:25.877Z,93.62
2022-09-17T22:28:53.173Z,93.79
2022-09-17T22:31:20.388Z,94.23
2022-09-17T22:33:48.534Z,93.37
2022-09-17T22:36:20.499Z,94.53
2022-09-17T22:38:51.975Z,94.89
2022-09-17T22:41:21.672Z,94.55
2022-09-17T22:43:48.080Z,95.04
2022-09-17T22:46:19.732Z,94.53
2022-09-17T22:48:47.441Z,94.91
2022-09-17T22:51:14.638Z,95.17
2022-09-17T22:53:41.693Z,96.61
2022-09-17T22:56:11.606Z,95.58
2022-09-17T22:58:38.192Z,95.40
2022-09-17T23:01:13.362Z,96.57
2022-09-17T23:03:40.990Z,96.11
2022-09-17T23:06:11.163Z,95.28
2022-09-17T23:08:38.166Z,96.14
2022-09-17T23:11:06.104Z,95.22
2022-09-17T23:13:34.714Z,94.70
2022-09-17T23:16:06.784Z,94.22
2022-09-17T23:18:35.023Z,94.92
2022-09-17T23:21:04.554Z,95.04
2022-09-17T23:23:30.973Z,95.75
2022-09-17T23:26:03.984Z,95.73
2022-09-17T23:28:30.585Z,96.23
2022-09-17T23:30:57.326Z,96.14
2022-09-17T23:33:23.866Z,96.42
2022-09-17T23:35:50.365Z,96.01
2022-09-17T23:38:16.792Z,95.78
2022-09-17T23:40:43.279Z,95.72
2022-09-17T23:43:09.701Z,95.30
2022-09-17T23:45:36.131Z,94.89
2022-09-17T23:48:02.561Z,95.55
2022-09-17T23:50:29.218Z,95.57
2022-09-17T23:52:55.654Z,94.88
2022-09-17T23:55:22.041Z,94.00
2022-09-17T23:57:48.484Z,94.38
